Aziz Torlak — V7TO4 — position and weather

sailwx.info

Track history (hours):
 
Tides and Currents Weather Stations Pressure Air Temp Water Temp Dewpoint Dewpoint Depression Visibility Wind Speed Wind Dir Waves Ship Positions

Aziz Torlak

Last reported at 2018-Jan-22 04:35 UTC. Time now 2018-Jan-23 14:06 UTC.
Position N 39°12' W 009°57'.

Length 124 m; draft 7.6 m.

Type: Ship (hazmat cat B). MMSI: 538003844.

Date/timePositionNaut miles runAvg speedWind from/ knotsBaromVisibWave heightAir tempDewpointWater temp
2018-Jan-22 04:35N 39°12' W 009°57'110.8
2018-Jan-22 04:30N 39°11' W 009°57'611.1
2018-Jan-22 04:00N 39°05' W 009°57'510.9
2018-Jan-22 03:30N 38°60' W 009°58'611.0
2018-Jan-22 03:00N 38°54' W 009°58'511.1
2018-Jan-22 02:30N 38°49' W 009°57'510.7
2018-Jan-22 02:00N 38°43' W 009°57'510.5
2018-Jan-22 01:30N 38°38' W 009°56'510.3
2018-Jan-22 01:00N 38°33' W 009°54'510.3
2018-Jan-22 00:30N 38°28' W 009°53'510.5
2018-Jan-21 23:59N 38°23' W 009°51'710.5
2018-Jan-21 23:21N 38°16' W 009°49'510.3
2018-Jan-21 22:53N 38°12' W 009°48'6410.4
2018-Jan-21 16:48N 37°10' W 009°30'20110.6
2018-Jan-20 21:52N 35°58' W 005°36'6 9.3
2018-Jan-20 21:11N 35°60' W 005°28'2 9.1
2018-Jan-20 21:01N 36°00' W 005°26'5 9.8
2018-Jan-20 20:29N 36°01' W 005°20'5 9.5
2018-Jan-20 20:01N 36°02' W 005°15'10410.4
2018-Jan-20 10:00N 36°19' W 003°08'912.7
2018-Jan-20 09:18N 36°20' W 002°57'1712.1
2018-Jan-20 07:54N 36°23' W 002°36'511.3
2018-Jan-20 07:27N 36°24' W 002°30'1210.7
2018-Jan-20 06:20N 36°25' W 002°15'410.6
2018-Jan-20 06:00N 36°26' W 002°11'510.7
2018-Jan-20 05:30N 36°26' W 002°04'  
Track history (hours):
 
Tides and Currents Weather Stations Pressure Air Temp Water Temp Dewpoint Dewpoint Depression Visibility Wind Speed Wind Dir Waves Ship Positions

Aziz Torlak

Last reported at 2018-Jan-22 04:35 UTC. Time now 2018-Jan-23 14:06 UTC.
Position N 39°12' W 009°57'.

Length 124 m; draft 7.6 m.

Type: Ship (hazmat cat B). MMSI: 538003844.

Date/timePositionNaut miles runAvg speedWind from/ knotsBaromVisibWave heightAir tempDewpointWater temp
2018-Jan-22 04:35N 39°12' W 009°57'110.8
2018-Jan-22 04:30N 39°11' W 009°57'611.1
2018-Jan-22 04:00N 39°05' W 009°57'510.9
2018-Jan-22 03:30N 38°60' W 009°58'611.0
2018-Jan-22 03:00N 38°54' W 009°58'511.1
2018-Jan-22 02:30N 38°49' W 009°57'510.7
2018-Jan-22 02:00N 38°43' W 009°57'510.5
2018-Jan-22 01:30N 38°38' W 009°56'510.3
2018-Jan-22 01:00N 38°33' W 009°54'510.3
2018-Jan-22 00:30N 38°28' W 009°53'510.5
2018-Jan-21 23:59N 38°23' W 009°51'710.5
2018-Jan-21 23:21N 38°16' W 009°49'510.3
2018-Jan-21 22:53N 38°12' W 009°48'6410.4
2018-Jan-21 16:48N 37°10' W 009°30'20110.6
2018-Jan-20 21:52N 35°58' W 005°36'6 9.3
2018-Jan-20 21:11N 35°60' W 005°28'2 9.1
2018-Jan-20 21:01N 36°00' W 005°26'5 9.8
2018-Jan-20 20:29N 36°01' W 005°20'5 9.5
2018-Jan-20 20:01N 36°02' W 005°15'10410.4
2018-Jan-20 10:00N 36°19' W 003°08'912.7
2018-Jan-20 09:18N 36°20' W 002°57'1712.1
2018-Jan-20 07:54N 36°23' W 002°36'511.3
2018-Jan-20 07:27N 36°24' W 002°30'1210.7
2018-Jan-20 06:20N 36°25' W 002°15'410.6
2018-Jan-20 06:00N 36°26' W 002°11'510.7
2018-Jan-20 05:30N 36°26' W 002°04'  

Dump ship's entire track history